createdAt,value
2024-02-24T00:00:28.430Z,51.212044
2024-02-24T00:01:28.438Z,51.211964
2024-02-24T00:02:28.507Z,51.212200
2024-02-24T00:03:28.428Z,51.212189
2024-02-24T00:04:28.520Z,51.212177
2024-02-24T00:05:28.481Z,51.212208
2024-02-24T00:06:28.434Z,51.212162
2024-02-24T00:07:28.440Z,51.212173
2024-02-24T00:08:28.413Z,51.212090
2024-02-24T00:09:28.428Z,51.212002
2024-02-24T00:10:28.420Z,51.212139
2024-02-24T00:11:28.453Z,51.212238
2024-02-24T00:12:28.352Z,51.211967
2024-02-24T00:13:30.116Z,51.211906
2024-02-24T00:14:28.391Z,51.211132
2024-02-24T00:15:28.357Z,51.210850
2024-02-24T00:16:28.407Z,51.210941
2024-02-24T00:17:28.382Z,51.211262
2024-02-24T00:18:28.365Z,51.211708
2024-02-24T00:19:28.405Z,51.211510
2024-02-24T00:20:28.451Z,51.212364
2024-02-24T00:21:28.683Z,51.211933
2024-02-24T00:22:28.318Z,51.211979
2024-02-24T00:23:28.340Z,51.212379
2024-02-24T00:24:28.285Z,51.212029
2024-02-24T00:25:30.170Z,51.212112
2024-02-24T00:26:28.299Z,51.212086
2024-02-24T00:27:28.256Z,51.212124
2024-02-24T00:28:28.295Z,51.212044
2024-02-24T00:29:28.309Z,51.212101
2024-02-24T00:30:28.261Z,51.211750
2024-02-24T00:31:28.234Z,51.211956
2024-02-24T00:32:28.290Z,51.212036
2024-02-24T00:33:28.328Z,51.212044
2024-02-24T00:34:28.355Z,51.212158
2024-02-24T00:35:28.284Z,51.212151
2024-02-24T00:36:28.205Z,51.212151
2024-02-24T00:37:28.230Z,51.212215
2024-02-24T00:38:28.225Z,51.212234
2024-02-24T00:39:28.224Z,51.212162
2024-02-24T00:40:28.204Z,51.212090
2024-02-24T00:41:28.267Z,51.212032
2024-02-24T00:42:28.194Z,51.212109
2024-02-24T00:43:28.163Z,51.212181
2024-02-24T00:44:28.165Z,51.212132
2024-02-24T00:45:28.176Z,51.212063
2024-02-24T00:46:28.154Z,51.212097
2024-02-24T00:47:28.228Z,51.212055
2024-02-24T00:48:28.197Z,51.212173
2024-02-24T00:49:28.181Z,51.212124
2024-02-24T00:50:28.125Z,51.212181
2024-02-24T00:51:28.124Z,51.212067
2024-02-24T00:52:28.129Z,51.212063
2024-02-24T00:53:28.170Z,51.212120
2024-02-24T00:54:28.100Z,51.212097
2024-02-24T00:55:28.088Z,51.212070
2024-02-24T00:56:28.096Z,51.212154
2024-02-24T00:57:28.098Z,51.212132
2024-02-24T00:58:28.071Z,51.212166
2024-02-24T00:59:28.130Z,51.212177
2024-02-24T01:00:28.071Z,51.212109
2024-02-24T01:01:28.137Z,51.212051
2024-02-24T01:02:28.098Z,51.212048
2024-02-24T01:03:28.037Z,51.212067
2024-02-24T01:04:28.122Z,51.212055
2024-02-24T01:05:28.124Z,51.212124
2024-02-24T01:06:28.015Z,51.212147
2024-02-24T01:07:28.095Z,51.212208
2024-02-24T01:08:28.098Z,51.212193
2024-02-24T01:09:28.155Z,51.212242
2024-02-24T01:10:28.065Z,51.212250
2024-02-24T01:11:28.029Z,51.212196
2024-02-24T01:12:28.366Z,51.212070
2024-02-24T01:13:27.997Z,51.212261
2024-02-24T01:14:29.020Z,51.212124
2024-02-24T01:15:28.026Z,51.212105
2024-02-24T01:16:27.944Z,51.212185
2024-02-24T01:17:28.039Z,51.212048
2024-02-24T01:18:28.035Z,51.212120
2024-02-24T01:19:27.936Z,51.212070
2024-02-24T01:20:27.978Z,51.212044
2024-02-24T01:21:27.949Z,51.212070
2024-02-24T01:22:27.917Z,51.212166
2024-02-24T01:23:27.941Z,51.212147
2024-02-24T01:24:27.945Z,51.212101
2024-02-24T01:25:27.904Z,51.212044
2024-02-24T01:26:27.927Z,51.212059
2024-02-24T01:27:27.889Z,51.212002
2024-02-24T01:28:27.869Z,51.212139
2024-02-24T01:29:27.963Z,51.212215
2024-02-24T01:30:27.933Z,51.212139
2024-02-24T01:31:27.886Z,51.212128
2024-02-24T01:32:27.980Z,51.212185
2024-02-24T01:33:27.904Z,51.212151
2024-02-24T01:34:27.992Z,51.212082
2024-02-24T01:35:27.879Z,51.212109
2024-02-24T01:36:27.832Z,51.212215
2024-02-24T01:37:27.807Z,51.212219
2024-02-24T01:38:27.849Z,51.212105
2024-02-24T01:39:27.828Z,51.212128
2024-02-24T01:40:27.800Z,51.212128
2024-02-24T01:41:27.839Z,51.212067
2024-02-24T01:42:27.789Z,51.212120
2024-02-24T01:43:27.769Z,51.212128
2024-02-24T01:44:27.803Z,51.212021
2024-02-24T01:45:27.789Z,51.211800
2024-02-24T01:46:27.764Z,51.211769
2024-02-24T01:47:27.821Z,51.211861
2024-02-24T01:48:27.843Z,51.212009
2024-02-24T01:49:27.836Z,51.212261
2024-02-24T01:50:27.794Z,51.212234
2024-02-24T01:51:27.730Z,51.212223
2024-02-24T01:52:27.729Z,51.212173
2024-02-24T01:53:27.738Z,51.211880
2024-02-24T01:54:27.751Z,51.211849
2024-02-24T01:55:27.710Z,51.212051
2024-02-24T01:56:27.728Z,51.212215
2024-02-24T01:57:27.725Z,51.212166
2024-02-24T01:58:27.734Z,51.212177
2024-02-24T01:59:27.793Z,51.212063
2024-02-24T02:00:27.662Z,51.212070
2024-02-24T02:01:27.654Z,51.212097
2024-02-24T02:02:27.701Z,51.212063
2024-02-24T02:03:27.658Z,51.212059
2024-02-24T02:04:27.697Z,51.212082
2024-02-24T02:05:27.715Z,51.212112
2024-02-24T02:06:27.679Z,51.212204
2024-02-24T02:07:27.678Z,51.212315
2024-02-24T02:08:27.646Z,51.212246
2024-02-24T02:09:28.640Z,51.212189
2024-02-24T02:10:27.588Z,51.212234
2024-02-24T02:11:27.653Z,51.212238
2024-02-24T02:12:27.745Z,51.212250
2024-02-24T02:13:27.661Z,51.212204
2024-02-24T02:14:27.633Z,51.212173
2024-02-24T02:15:27.564Z,51.212105
2024-02-24T02:16:27.576Z,51.212238
2024-02-24T02:17:27.620Z,51.212132
2024-02-24T02:18:29.634Z,51.212147
2024-02-24T02:19:27.584Z,51.212151
2024-02-24T02:20:27.581Z,51.212173
2024-02-24T02:21:28.169Z,51.212215
2024-02-24T02:22:27.519Z,51.212196
2024-02-24T02:23:27.611Z,51.212261
2024-02-24T02:24:27.547Z,51.212185
2024-02-24T02:25:27.542Z,51.212181
2024-02-24T02:26:27.545Z,51.212196
2024-02-24T02:27:27.500Z,51.212170
2024-02-24T02:28:27.487Z,51.212208
2024-02-24T02:29:27.552Z,51.212246
2024-02-24T02:30:27.470Z,51.212296
2024-02-24T02:31:28.306Z,51.212143
2024-02-24T02:32:27.532Z,51.212009
2024-02-24T02:33:27.609Z,51.211975
2024-02-24T02:34:27.484Z,51.212006
2024-02-24T02:35:27.509Z,51.212017
2024-02-24T02:36:27.453Z,51.212055
2024-02-24T02:37:27.470Z,51.212067
2024-02-24T02:38:27.456Z,51.212082
2024-02-24T02:39:27.422Z,51.212116
2024-02-24T02:40:27.460Z,51.212116
2024-02-24T02:41:27.421Z,51.212147
2024-02-24T02:42:27.368Z,51.212185
2024-02-24T02:43:27.379Z,51.212074
2024-02-24T02:44:27.395Z,51.212143
2024-02-24T02:45:27.384Z,51.212154
2024-02-24T02:46:27.393Z,51.212067
2024-02-24T02:47:27.485Z,51.212097
2024-02-24T02:48:27.476Z,51.212086
2024-02-24T02:49:28.373Z,51.212002
2024-02-24T02:50:27.441Z,51.212009
2024-02-24T02:51:27.325Z,51.212021
2024-02-24T02:52:27.326Z,51.212048
2024-02-24T02:53:27.355Z,51.212097
2024-02-24T02:54:27.317Z,51.212013
2024-02-24T02:55:27.393Z,51.212177
2024-02-24T02:56:27.366Z,51.212051
2024-02-24T02:57:27.311Z,51.212067
2024-02-24T02:58:27.275Z,51.212158
2024-02-24T02:59:27.301Z,51.212177
2024-02-24T03:00:27.308Z,51.212139
2024-02-24T03:01:27.376Z,51.212151
2024-02-24T03:02:27.321Z,51.212013
2024-02-24T03:03:27.284Z,51.211990
2024-02-24T03:04:27.268Z,51.212059
2024-02-24T03:05:27.291Z,51.212208
2024-02-24T03:06:27.264Z,51.212036
2024-02-24T03:07:27.283Z,51.212059
2024-02-24T03:08:27.250Z,51.212025
2024-02-24T03:09:27.200Z,51.212143
2024-02-24T03:10:27.274Z,51.212025
2024-02-24T03:11:27.281Z,51.212040
2024-02-24T03:12:27.296Z,51.212002
2024-02-24T03:13:27.214Z,51.211998
2024-02-24T03:14:27.250Z,51.212036
2024-02-24T03:15:27.188Z,51.212070
2024-02-24T03:16:28.163Z,51.212002
2024-02-24T03:17:27.219Z,51.212177
2024-02-24T03:18:27.277Z,51.212200
2024-02-24T03:19:27.219Z,51.212143
2024-02-24T03:20:27.193Z,51.212070
2024-02-24T03:21:27.167Z,51.212002
2024-02-24T03:22:27.145Z,51.212029
2024-02-24T03:23:27.142Z,51.212002
2024-02-24T03:24:27.187Z,51.211952
2024-02-24T03:25:27.122Z,51.211941
2024-02-24T03:26:27.148Z,51.211926
2024-02-24T03:27:27.111Z,51.211765
2024-02-24T03:28:27.095Z,51.211857
2024-02-24T03:29:27.105Z,51.211983
2024-02-24T03:30:27.122Z,51.212013
2024-02-24T03:31:27.092Z,51.211945
2024-02-24T03:32:27.154Z,51.212017
2024-02-24T03:33:27.155Z,51.212109
2024-02-24T03:34:27.116Z,51.212143
2024-02-24T03:35:27.076Z,51.212124
2024-02-24T03:36:27.030Z,51.212063
2024-02-24T03:37:27.024Z,51.212101
2024-02-24T03:38:27.099Z,51.212048
2024-02-24T03:39:27.038Z,51.211952
2024-02-24T03:40:27.043Z,51.211948
2024-02-24T03:41:27.047Z,51.211964
2024-02-24T03:42:26.989Z,51.212086
2024-02-24T03:43:26.986Z,51.212055
2024-02-24T03:44:27.012Z,51.212093
2024-02-24T03:45:27.059Z,51.212048
2024-02-24T03:46:26.981Z,51.211964
2024-02-24T03:47:27.063Z,51.212029
2024-02-24T03:48:27.050Z,51.211975
2024-02-24T03:49:27.138Z,51.211945
2024-02-24T03:50:26.986Z,51.211903
2024-02-24T03:51:26.958Z,51.211884
2024-02-24T03:52:26.949Z,51.211967
2024-02-24T03:53:26.982Z,51.211967
2024-02-24T03:54:26.942Z,51.212021
2024-02-24T03:55:26.920Z,51.212074
2024-02-24T03:56:26.974Z,51.212128
2024-02-24T03:57:26.918Z,51.212074
2024-02-24T03:58:26.887Z,51.212063
2024-02-24T03:59:26.917Z,51.212044
2024-02-24T04:00:26.872Z,51.212055
2024-02-24T04:01:26.878Z,51.212116
2024-02-24T04:02:26.935Z,51.212120
2024-02-24T04:03:26.888Z,51.212139
2024-02-24T04:04:26.881Z,51.212185
2024-02-24T04:05:26.946Z,51.212097
2024-02-24T04:06:26.884Z,51.212093
2024-02-24T04:07:26.822Z,51.212212
2024-02-24T04:08:26.856Z,51.212147
2024-02-24T04:09:26.885Z,51.211975
2024-02-24T04:10:26.852Z,51.212173
2024-02-24T04:11:26.857Z,51.212143
2024-02-24T04:12:26.868Z,51.212158
2024-02-24T04:13:26.794Z,51.212040
2024-02-24T04:14:26.855Z,51.212166
2024-02-24T04:15:26.806Z,51.212177
2024-02-24T04:16:26.768Z,51.212013
2024-02-24T04:17:26.777Z,51.212055
2024-02-24T04:18:26.851Z,51.211887
2024-02-24T04:19:26.857Z,51.211918
2024-02-24T04:20:26.820Z,51.212059
2024-02-24T04:21:26.763Z,51.212021
2024-02-24T04:22:26.754Z,51.212078
2024-02-24T04:23:26.785Z,51.212181
2024-02-24T04:24:26.734Z,51.212158
2024-02-24T04:25:26.721Z,51.212162
2024-02-24T04:26:26.798Z,51.212162
2024-02-24T04:27:26.718Z,51.212200
2024-02-24T04:28:26.783Z,51.212135
2024-02-24T04:29:26.719Z,51.212048
2024-02-24T04:30:27.254Z,51.211952
2024-02-24T04:31:26.748Z,51.211807
2024-02-24T04:32:26.815Z,51.211891
2024-02-24T04:33:27.308Z,51.211853
2024-02-24T04:34:26.723Z,51.211830
2024-02-24T04:35:26.780Z,51.211926
2024-02-24T04:36:26.649Z,51.211838
2024-02-24T04:37:26.696Z,51.211983
2024-02-24T04:38:26.637Z,51.212002
2024-02-24T04:39:26.677Z,51.212036
2024-02-24T04:40:26.659Z,51.211880
2024-02-24T04:41:26.724Z,51.211910
2024-02-24T04:42:26.609Z,51.211945
2024-02-24T04:43:26.612Z,51.211960
2024-02-24T04:44:26.606Z,51.211922
2024-02-24T04:45:26.619Z,51.212055
2024-02-24T04:46:26.578Z,51.212017
2024-02-24T04:47:26.669Z,51.211983
2024-02-24T04:48:26.661Z,51.211941
2024-02-24T04:49:26.576Z,51.211948
2024-02-24T04:50:26.704Z,51.212017
2024-02-24T04:51:26.552Z,51.212059
2024-02-24T04:52:26.537Z,51.212002
2024-02-24T04:53:26.562Z,51.211987
2024-02-24T04:54:26.519Z,51.211891
2024-02-24T04:55:26.565Z,51.211918
2024-02-24T04:56:26.552Z,51.211800
2024-02-24T04:57:26.509Z,51.211826
2024-02-24T04:58:26.557Z,51.211796
2024-02-24T04:59:26.605Z,51.211746
2024-02-24T05:00:26.514Z,51.211769
2024-02-24T05:01:26.533Z,51.212017
2024-02-24T05:02:26.557Z,51.212067
2024-02-24T05:03:26.539Z,51.212006
2024-02-24T05:04:26.575Z,51.212025
2024-02-24T05:05:26.490Z,51.211906
2024-02-24T05:06:26.547Z,51.212025
2024-02-24T05:07:26.468Z,51.212055
2024-02-24T05:08:26.510Z,51.212120
2024-02-24T05:09:26.531Z,51.212223
2024-02-24T05:10:26.477Z,51.212090
2024-02-24T05:11:26.529Z,51.211967
2024-02-24T05:12:26.992Z,51.211761
2024-02-24T05:13:26.416Z,51.211777
2024-02-24T05:14:26.401Z,51.211937
2024-02-24T05:15:26.411Z,51.211987
2024-02-24T05:16:26.402Z,51.211945
2024-02-24T05:17:26.396Z,51.211983
2024-02-24T05:18:26.524Z,51.212139
2024-02-24T05:19:26.410Z,51.212101
2024-02-24T05:20:26.454Z,51.212086
2024-02-24T05:21:26.420Z,51.212173
2024-02-24T05:22:26.353Z,51.212097
2024-02-24T05:23:26.397Z,51.211937
2024-02-24T05:24:26.370Z,51.211796
2024-02-24T05:25:26.341Z,51.211807
2024-02-24T05:26:26.371Z,51.211910
2024-02-24T05:27:26.377Z,51.211990
2024-02-24T05:28:26.296Z,51.212036
2024-02-24T05:29:26.353Z,51.212017
2024-02-24T05:30:26.313Z,51.212166
2024-02-24T05:31:26.285Z,51.212234
2024-02-24T05:32:26.425Z,51.212269
2024-02-24T05:33:26.512Z,51.212219
2024-02-24T05:34:26.444Z,51.212193
2024-02-24T05:35:26.283Z,51.212208
2024-02-24T05:36:26.271Z,51.212200
2024-02-24T05:37:26.283Z,51.212173
2024-02-24T05:38:26.290Z,51.212208
2024-02-24T05:39:26.272Z,51.212193
2024-02-24T05:40:26.253Z,51.212231
2024-02-24T05:41:26.259Z,51.212219
2024-02-24T05:42:26.210Z,51.212189
2024-02-24T05:43:26.222Z,51.212204
2024-02-24T05:44:26.300Z,51.212185
2024-02-24T05:45:26.198Z,51.212132
2024-02-24T05:46:26.242Z,51.212158
2024-02-24T05:47:26.290Z,51.212166
2024-02-24T05:48:26.246Z,51.212166
2024-02-24T05:49:26.253Z,51.212193
2024-02-24T05:50:26.226Z,51.212139
2024-02-24T05:51:26.249Z,51.212128
2024-02-24T05:52:26.172Z,51.212181
2024-02-24T05:53:26.175Z,51.212154
2024-02-24T05:54:26.186Z,51.212185
2024-02-24T05:55:26.147Z,51.212132
2024-02-24T05:56:26.187Z,51.211975
2024-02-24T05:57:26.147Z,51.211872
2024-02-24T05:58:27.753Z,51.211922
2024-02-24T05:59:26.187Z,51.212189
2024-02-24T06:00:26.161Z,51.212132
2024-02-24T06:01:26.095Z,51.212143
2024-02-24T06:02:26.166Z,51.212135
2024-02-24T06:03:26.188Z,51.212177
2024-02-24T06:04:26.094Z,51.212116
2024-02-24T06:05:26.130Z,51.212059
2024-02-24T06:06:26.186Z,51.211952
2024-02-24T06:07:26.108Z,51.212013
2024-02-24T06:08:26.128Z,51.211994
2024-02-24T06:09:26.081Z,51.212109
2024-02-24T06:10:26.058Z,51.212139
2024-02-24T06:11:26.143Z,51.212135
2024-02-24T06:12:26.060Z,51.212219
2024-02-24T06:13:26.065Z,51.212162
2024-02-24T06:14:26.041Z,51.212170
2024-02-24T06:15:26.073Z,51.212059
2024-02-24T06:16:26.035Z,51.212154
2024-02-24T06:17:26.048Z,51.212219
2024-02-24T06:18:26.153Z,51.212261
2024-02-24T06:19:26.009Z,51.212360
2024-02-24T06:20:26.036Z,51.212132
2024-02-24T06:21:26.069Z,51.212044
2024-02-24T06:22:26.030Z,51.212097
2024-02-24T06:23:26.068Z,51.212151
2024-02-24T06:24:26.011Z,51.212120
2024-02-24T06:25:25.991Z,51.212070
2024-02-24T06:26:26.070Z,51.212132
2024-02-24T06:27:25.962Z,51.212040
2024-02-24T06:28:26.025Z,51.212112
2024-02-24T06:29:26.019Z,51.212177
2024-02-24T06:30:25.945Z,51.212242
2024-02-24T06:31:25.995Z,51.212132
2024-02-24T06:32:26.017Z,51.212070
2024-02-24T06:33:26.077Z,51.211998
2024-02-24T06:34:25.948Z,51.212078
2024-02-24T06:35:26.929Z,51.212112
2024-02-24T06:36:25.884Z,51.212048
2024-02-24T06:37:25.921Z,51.212067
2024-02-24T06:38:25.957Z,51.212124
2024-02-24T06:39:25.954Z,51.212143
2024-02-24T06:40:33.193Z,51.212181
2024-02-24T06:41:28.880Z,51.212185
2024-02-24T06:42:25.874Z,51.212147
2024-02-24T06:43:25.861Z,51.212074
2024-02-24T06:44:25.889Z,51.212132
2024-02-24T06:45:25.923Z,51.212124
2024-02-24T06:46:25.820Z,51.211937
2024-02-24T06:47:29.383Z,51.211945
2024-02-24T06:48:25.932Z,51.212139
2024-02-24T06:49:25.900Z,51.212288
2024-02-24T06:50:25.894Z,51.212303
2024-02-24T06:51:25.816Z,51.212105
2024-02-24T06:52:25.858Z,51.211983
2024-02-24T06:53:25.823Z,51.212112
2024-02-24T06:54:25.803Z,51.212158
2024-02-24T06:55:25.799Z,51.212173
2024-02-24T06:56:25.792Z,51.212265
2024-02-24T06:57:25.776Z,51.212254
2024-02-24T06:58:25.814Z,51.212147
2024-02-24T06:59:25.835Z,51.211941
2024-02-24T07:00:25.780Z,51.212082
2024-02-24T07:01:25.777Z,51.212082
2024-02-24T07:02:25.819Z,51.212082
2024-02-24T07:03:25.873Z,51.212147
2024-02-24T07:04:25.715Z,51.212070
2024-02-24T07:05:25.845Z,51.211994
2024-02-24T07:06:27.272Z,51.212105
2024-02-24T07:07:25.738Z,51.212265
2024-02-24T07:08:25.739Z,51.212135
2024-02-24T07:09:25.725Z,51.212177
2024-02-24T07:10:25.730Z,51.212101
2024-02-24T07:11:25.749Z,51.212326
2024-02-24T07:12:25.729Z,51.212158
2024-02-24T07:13:25.702Z,51.212173
2024-02-24T07:14:25.704Z,51.212284
2024-02-24T07:15:26.731Z,51.212078
2024-02-24T07:16:25.658Z,51.212067
2024-02-24T07:17:25.713Z,51.212128
2024-02-24T07:18:25.808Z,51.212109
2024-02-24T07:19:25.678Z,51.212151
2024-02-24T07:20:25.676Z,51.212231
2024-02-24T07:21:25.619Z,51.212086
2024-02-24T07:22:25.637Z,51.212105
2024-02-24T07:23:25.605Z,51.212067
2024-02-24T07:24:25.605Z,51.212017
2024-02-24T07:25:25.627Z,51.212204
2024-02-24T07:26:25.666Z,51.212116
2024-02-24T07:27:25.627Z,51.212048
2024-02-24T07:28:25.589Z,51.212006
2024-02-24T07:29:25.609Z,51.211773
2024-02-24T07:30:25.599Z,51.211906
2024-02-24T07:31:25.551Z,51.212025
2024-02-24T07:32:25.588Z,51.211914
2024-02-24T07:33:25.669Z,51.212044
2024-02-24T07:34:25.664Z,51.212021
2024-02-24T07:35:25.613Z,51.212097
2024-02-24T07:36:25.559Z,51.212166
2024-02-24T07:37:25.536Z,51.212006
2024-02-24T07:38:25.553Z,51.212021
2024-02-24T07:39:25.533Z,51.211864
2024-02-24T07:40:25.515Z,51.211826
2024-02-24T07:41:25.516Z,51.212124
2024-02-24T07:42:25.485Z,51.212036
2024-02-24T07:43:25.515Z,51.212055
2024-02-24T07:44:25.552Z,51.212101
2024-02-24T07:45:25.475Z,51.212063
2024-02-24T07:46:26.233Z,51.212055
2024-02-24T07:47:25.542Z,51.212128
2024-02-24T07:48:25.516Z,51.212055
2024-02-24T07:49:25.510Z,51.212116
2024-02-24T07:50:25.600Z,51.212009
2024-02-24T07:51:25.477Z,51.212120
2024-02-24T07:52:25.438Z,51.212246
2024-02-24T07:53:25.445Z,51.212257
2024-02-24T07:54:25.415Z,51.212193
2024-02-24T07:55:25.432Z,51.212154
2024-02-24T07:56:25.481Z,51.212078
2024-02-24T07:57:25.530Z,51.212002
2024-02-24T07:58:25.391Z,51.212032
2024-02-24T07:59:25.517Z,51.212032
2024-02-24T08:00:25.388Z,51.211903
2024-02-24T08:01:26.403Z,51.211922
2024-02-24T08:02:26.500Z,51.212021
2024-02-24T08:03:26.214Z,51.212093
2024-02-24T08:04:25.419Z,51.212196
2024-02-24T08:05:25.411Z,51.212135
2024-02-24T08:06:25.461Z,51.212204
2024-02-24T08:07:25.448Z,51.212051
2024-02-24T08:08:25.400Z,51.212074
2024-02-24T08:09:25.454Z,51.212109
2024-02-24T08:10:25.327Z,51.212116
2024-02-24T08:11:25.534Z,51.212082
2024-02-24T08:12:25.525Z,51.212139
2024-02-24T08:13:25.299Z,51.212212
2024-02-24T08:14:25.357Z,51.212200
2024-02-24T08:15:25.295Z,51.212158
2024-02-24T08:16:25.349Z,51.212234
2024-02-24T08:17:25.378Z,51.212124
2024-02-24T08:18:26.410Z,51.212116
2024-02-24T08:19:25.332Z,51.212185
2024-02-24T08:20:25.374Z,51.212177
2024-02-24T08:21:25.285Z,51.212135
2024-02-24T08:22:25.261Z,51.212093
2024-02-24T08:23:26.260Z,51.212173
2024-02-24T08:24:25.253Z,51.212204
2024-02-24T08:25:25.231Z,51.212170
2024-02-24T08:26:25.282Z,51.212036
2024-02-24T08:27:25.218Z,51.211960
2024-02-24T08:28:25.550Z,51.212002
2024-02-24T08:29:25.252Z,51.212051
2024-02-24T08:30:26.256Z,51.212032
2024-02-24T08:31:25.201Z,51.211990
2024-02-24T08:32:25.288Z,51.212036
2024-02-24T08:33:26.803Z,51.211975
2024-02-24T08:34:25.183Z,51.212078
2024-02-24T08:35:25.256Z,51.212101
2024-02-24T08:36:25.293Z,51.212154
2024-02-24T08:37:25.521Z,51.212154
2024-02-24T08:38:25.206Z,51.212124
2024-02-24T08:39:25.180Z,51.212135
2024-02-24T08:40:26.666Z,51.212132
2024-02-24T08:41:25.157Z,51.212128
2024-02-24T08:42:25.173Z,51.212051
2024-02-24T08:43:25.195Z,51.212067
2024-02-24T08:44:25.189Z,51.212059
2024-02-24T08:45:25.213Z,51.212044
2024-02-24T08:46:25.507Z,51.212162
2024-02-24T08:47:25.195Z,51.212242
2024-02-24T08:48:25.153Z,51.212181
2024-02-24T08:49:25.160Z,51.212212
2024-02-24T08:50:25.152Z,51.212170
2024-02-24T08:51:25.070Z,51.212124
2024-02-24T08:52:32.807Z,51.212128
2024-02-24T08:53:27.080Z,51.212170
2024-02-24T08:54:25.067Z,51.212124
2024-02-24T08:55:25.068Z,51.212143
2024-02-24T08:56:25.102Z,51.212234
2024-02-24T08:57:25.049Z,51.212143
2024-02-24T08:58:25.057Z,51.212112
2024-02-24T08:59:25.070Z,51.212067
2024-02-24T09:00:25.068Z,51.212067
2024-02-24T09:01:25.164Z,51.212055
2024-02-24T09:02:25.046Z,51.212154
2024-02-24T09:03:25.398Z,51.212132
2024-02-24T09:04:26.002Z,51.212166
2024-02-24T09:05:25.105Z,51.212227
2024-02-24T09:06:25.180Z,51.212254
2024-02-24T09:07:25.096Z,51.212116
2024-02-24T09:08:25.004Z,51.212116
2024-02-24T09:09:24.985Z,51.212158
2024-02-24T09:10:25.598Z,51.212227
2024-02-24T09:11:25.068Z,51.211956
2024-02-24T09:12:25.050Z,51.212013
2024-02-24T09:13:25.961Z,51.211971
2024-02-24T09:14:25.023Z,51.211910
2024-02-24T09:15:24.932Z,51.212074
2024-02-24T09:16:24.935Z,51.211998
2024-02-24T09:17:25.003Z,51.212036
2024-02-24T09:18:25.067Z,51.212078
2024-02-24T09:19:24.938Z,51.212036
2024-02-24T09:20:24.983Z,51.212006
2024-02-24T09:21:24.919Z,51.212074
2024-02-24T09:22:24.939Z,51.212151
2024-02-24T09:23:24.988Z,51.212086
2024-02-24T09:24:24.903Z,51.212067
2024-02-24T09:25:24.877Z,51.212093
2024-02-24T09:26:24.906Z,51.212086
2024-02-24T09:27:24.971Z,51.212124
2024-02-24T09:28:24.908Z,51.212086
2024-02-24T09:29:24.961Z,51.212063
2024-02-24T09:30:24.892Z,51.212006
2024-02-24T09:31:24.865Z,51.212124
2024-02-24T09:32:24.943Z,51.212124
2024-02-24T09:33:24.994Z,51.212193
2024-02-24T09:34:24.941Z,51.211952
2024-02-24T09:35:24.823Z,51.212017
2024-02-24T09:36:24.802Z,51.211994
2024-02-24T09:37:24.941Z,51.212093
2024-02-24T09:38:24.840Z,51.212177
2024-02-24T09:39:24.804Z,51.212147
2024-02-24T09:40:24.784Z,51.212189
2024-02-24T09:41:24.824Z,51.212208
2024-02-24T09:42:24.821Z,51.212158
2024-02-24T09:43:24.770Z,51.212070
2024-02-24T09:44:26.523Z,51.212097
2024-02-24T09:45:24.810Z,51.212143
2024-02-24T09:46:24.757Z,51.212242
2024-02-24T09:47:24.794Z,51.212006
2024-02-24T09:48:24.962Z,51.212025
2024-02-24T09:49:24.751Z,51.212105
2024-02-24T09:50:25.783Z,51.212067
2024-02-24T09:51:24.716Z,51.211964
2024-02-24T09:52:24.792Z,51.212029
2024-02-24T09:53:24.775Z,51.211994
2024-02-24T09:54:24.693Z,51.211658
2024-02-24T09:55:24.747Z,51.211906
2024-02-24T09:56:24.783Z,51.211773
2024-02-24T09:57:24.667Z,51.212086
2024-02-24T09:58:24.694Z,51.212101
2024-02-24T09:59:24.723Z,51.211929
2024-02-24T10:00:24.669Z,51.211948
2024-02-24T10:01:24.726Z,51.211906
2024-02-24T10:02:24.695Z,51.211952
2024-02-24T10:03:24.689Z,51.212097
2024-02-24T10:04:24.644Z,51.212173
2024-02-24T10:05:24.768Z,51.211990
2024-02-24T10:06:24.764Z,51.211990
2024-02-24T10:07:25.279Z,51.212013
2024-02-24T10:08:24.636Z,51.212101
2024-02-24T10:09:24.594Z,51.212212
2024-02-24T10:10:24.619Z,51.212063
2024-02-24T10:11:24.691Z,51.211948
2024-02-24T10:12:24.606Z,51.212017
2024-02-24T10:13:24.578Z,51.212128
2024-02-24T10:14:24.635Z,51.212196
2024-02-24T10:15:24.621Z,51.212044
2024-02-24T10:16:24.591Z,51.211777
2024-02-24T10:17:24.607Z,51.211941
2024-02-24T10:18:24.625Z,51.211998
2024-02-24T10:19:26.409Z,51.212116
2024-02-24T10:20:25.579Z,51.212166
2024-02-24T10:21:24.735Z,51.212204
2024-02-24T10:22:26.539Z,51.211761
2024-02-24T10:23:24.588Z,51.211960
2024-02-24T10:24:24.513Z,51.212032
2024-02-24T10:25:24.638Z,51.211994
2024-02-24T10:26:24.544Z,51.212074
2024-02-24T10:27:24.500Z,51.212234
2024-02-24T10:28:24.490Z,51.212002
2024-02-24T10:29:24.527Z,51.211987
2024-02-24T10:30:26.203Z,51.212154
2024-02-24T10:31:24.518Z,51.212040
2024-02-24T10:32:24.515Z,51.212067
2024-02-24T10:33:24.765Z,51.212284
2024-02-24T10:34:24.487Z,51.212166
2024-02-24T10:35:24.544Z,51.212025
2024-02-24T10:36:24.494Z,51.212189
2024-02-24T10:37:24.442Z,51.212063
2024-02-24T10:38:34.418Z,51.212162
2024-02-24T10:39:25.496Z,51.212006
2024-02-24T10:40:25.268Z,51.212223
2024-02-24T10:41:29.252Z,51.212147
2024-02-24T10:42:24.412Z,51.212090
2024-02-24T10:43:25.216Z,51.212128
2024-02-24T10:44:24.422Z,51.212185
2024-02-24T10:45:24.388Z,51.212151
2024-02-24T10:46:24.395Z,51.212173
2024-02-24T10:47:24.384Z,51.212112
2024-02-24T10:48:24.477Z,51.212173
2024-02-24T10:49:24.558Z,51.212196
2024-02-24T10:50:24.376Z,51.212135
2024-02-24T10:51:24.382Z,51.212215
2024-02-24T10:52:24.346Z,51.212254
2024-02-24T10:53:24.530Z,51.212223
2024-02-24T10:54:24.351Z,51.212257
2024-02-24T10:55:24.344Z,51.212193
2024-02-24T10:56:24.362Z,51.212181
2024-02-24T10:57:24.319Z,51.212326
2024-02-24T10:58:24.318Z,51.212158
2024-02-24T10:59:24.371Z,51.212112
2024-02-24T11:00:24.348Z,51.212105
2024-02-24T11:01:24.334Z,51.212128
2024-02-24T11:02:24.366Z,51.212189
2024-02-24T11:03:24.269Z,51.212257
2024-02-24T11:04:24.280Z,51.212189
2024-02-24T11:05:24.289Z,51.212055
2024-02-24T11:06:24.301Z,51.212029
2024-02-24T11:07:24.497Z,51.212002
2024-02-24T11:08:24.257Z,51.212051
2024-02-24T11:09:24.249Z,51.212040
2024-02-24T11:10:24.322Z,51.212078
2024-02-24T11:11:24.272Z,51.212093
2024-02-24T11:12:24.648Z,51.212055
2024-02-24T11:13:24.244Z,51.211990
2024-02-24T11:14:24.242Z,51.212040
2024-02-24T11:15:24.201Z,51.212090
2024-02-24T11:16:24.209Z,51.212059
2024-02-24T11:17:24.208Z,51.212070
2024-02-24T11:18:24.284Z,51.212040
2024-02-24T11:19:24.212Z,51.212074
2024-02-24T11:20:24.207Z,51.212013
2024-02-24T11:21:24.153Z,51.212009
2024-02-24T11:22:24.236Z,51.212009
2024-02-24T11:23:24.273Z,51.211964
2024-02-24T11:24:24.143Z,51.212109